sensor_id;sensor_type;location;lat;lon;timestamp;pressure;altitude;pressure_sealevel;temperature;humidity
10115;BME280;5097;43.260;27.812;2023-09-19T00:01:57;100517.91;;;17.01;82.10
10115;BME280;5097;43.260;27.812;2023-09-19T00:04:42;100521.13;;;16.94;82.51
10115;BME280;5097;43.260;27.812;2023-09-19T00:07:27;100521.63;;;16.99;82.67
10115;BME280;5097;43.260;27.812;2023-09-19T00:10:11;100517.69;;;16.91;82.93
10115;BME280;5097;43.260;27.812;2023-09-19T00:12:55;100524.09;;;16.89;83.25
10115;BME280;5097;43.260;27.812;2023-09-19T00:15:43;100520.25;;;16.93;83.04
10115;BME280;5097;43.260;27.812;2023-09-19T00:18:33;100516.53;;;16.83;83.67
10115;BME280;5097;43.260;27.812;2023-09-19T00:21:18;100516.19;;;16.87;83.55
10115;BME280;5097;43.260;27.812;2023-09-19T00:24:03;100506.41;;;16.88;83.73
10115;BME280;5097;43.260;27.812;2023-09-19T00:26:48;100506.59;;;16.85;84.04
10115;BME280;5097;43.260;27.812;2023-09-19T00:29:33;100519.09;;;16.97;83.50
10115;BME280;5097;43.260;27.812;2023-09-19T00:32:18;100509.16;;;16.86;83.74
10115;BME280;5097;43.260;27.812;2023-09-19T00:35:04;100514.91;;;16.93;83.86
10115;BME280;5097;43.260;27.812;2023-09-19T00:37:49;100509.56;;;16.93;83.76
10115;BME280;5097;43.260;27.812;2023-09-19T00:40:33;100464.94;;;16.71;83.82
10115;BME280;5097;43.260;27.812;2023-09-19T00:43:18;100505.00;;;16.95;83.80
10115;BME280;5097;43.260;27.812;2023-09-19T00:46:02;100505.41;;;16.89;84.06
10115;BME280;5097;43.260;27.812;2023-09-19T00:48:49;100515.59;;;16.84;84.30
10115;BME280;5097;43.260;27.812;2023-09-19T00:51:35;100517.06;;;16.88;84.29
10115;BME280;5097;43.260;27.812;2023-09-19T00:54:20;100475.53;;;16.59;84.61
10115;BME280;5097;43.260;27.812;2023-09-19T00:57:05;100513.63;;;16.86;84.68
10115;BME280;5097;43.260;27.812;2023-09-19T00:59:53;100513.22;;;16.92;84.52
10115;BME280;5097;43.260;27.812;2023-09-19T01:02:38;100465.06;;;16.69;84.16
10115;BME280;5097;43.260;27.812;2023-09-19T01:05:23;100475.50;;;16.72;84.22
10115;BME280;5097;43.260;27.812;2023-09-19T01:08:10;100479.41;;;16.80;84.02
10115;BME280;5097;43.260;27.812;2023-09-19T01:11:00;100513.97;;;16.94;84.31
10115;BME280;5097;43.260;27.812;2023-09-19T01:13:55;100473.19;;;16.68;84.49
10115;BME280;5097;43.260;27.812;2023-09-19T01:16:45;100458.16;;;16.78;83.68
10115;BME280;5097;43.260;27.812;2023-09-19T01:23:00;100486.56;;;16.92;84.43
10115;BME280;5097;43.260;27.812;2023-09-19T01:26:11;100492.00;;;16.90;84.42
10115;BME280;5097;43.260;27.812;2023-09-19T01:29:16;100481.50;;;17.00;84.01
10115;BME280;5097;43.260;27.812;2023-09-19T01:32:09;100491.88;;;16.92;84.30
10115;BME280;5097;43.260;27.812;2023-09-19T01:34:56;100479.72;;;16.88;84.24
10115;BME280;5097;43.260;27.812;2023-09-19T01:37:47;100489.72;;;16.97;84.07
10115;BME280;5097;43.260;27.812;2023-09-19T01:40:31;100486.97;;;16.86;84.29
10115;BME280;5097;43.260;27.812;2023-09-19T01:43:27;100502.56;;;16.92;84.48
10115;BME280;5097;43.260;27.812;2023-09-19T01:46:17;100502.97;;;16.86;84.85
10115;BME280;5097;43.260;27.812;2023-09-19T01:49:13;100497.88;;;16.83;84.72
10115;BME280;5097;43.260;27.812;2023-09-19T01:52:09;100472.16;;;16.82;84.29
10115;BME280;5097;43.260;27.812;2023-09-19T01:55:01;100498.81;;;16.82;85.17
10115;BME280;5097;43.260;27.812;2023-09-19T01:57:55;100499.13;;;16.90;85.26
10115;BME280;5097;43.260;27.812;2023-09-19T02:00:44;100491.88;;;16.92;84.74
10115;BME280;5097;43.260;27.812;2023-09-19T02:03:30;100496.75;;;16.98;85.11
10115;BME280;5097;43.260;27.812;2023-09-19T02:06:18;100493.38;;;16.96;84.93
10115;BME280;5097;43.260;27.812;2023-09-19T02:09:04;100499.94;;;17.03;85.02
10115;BME280;5097;43.260;27.812;2023-09-19T02:11:48;100493.56;;;16.93;85.46
10115;BME280;5097;43.260;27.812;2023-09-19T02:14:32;100494.09;;;16.98;85.48
10115;BME280;5097;43.260;27.812;2023-09-19T02:17:16;100501.13;;;16.99;85.37
10115;BME280;5097;43.260;27.812;2023-09-19T02:20:01;100487.72;;;16.88;85.67
10115;BME280;5097;43.260;27.812;2023-09-19T02:22:47;100490.38;;;16.88;85.85
10115;BME280;5097;43.260;27.812;2023-09-19T02:25:53;100487.28;;;16.94;85.72
10115;BME280;5097;43.260;27.812;2023-09-19T02:28:37;100485.34;;;16.96;85.22
10115;BME280;5097;43.260;27.812;2023-09-19T02:31:21;100485.56;;;16.93;85.75
10115;BME280;5097;43.260;27.812;2023-09-19T02:34:07;100488.75;;;16.98;85.39
10115;BME280;5097;43.260;27.812;2023-09-19T02:36:52;100472.66;;;16.87;85.43
10115;BME280;5097;43.260;27.812;2023-09-19T02:39:40;100480.53;;;16.88;85.53
10115;BME280;5097;43.260;27.812;2023-09-19T02:42:24;100444.16;;;16.63;86.18
10115;BME280;5097;43.260;27.812;2023-09-19T02:45:09;100486.31;;;16.95;86.25
10115;BME280;5097;43.260;27.812;2023-09-19T02:47:54;100485.56;;;16.93;86.26
10115;BME280;5097;43.260;27.812;2023-09-19T02:50:38;100464.16;;;16.82;86.18
10115;BME280;5097;43.260;27.812;2023-09-19T02:53:23;100441.56;;;16.74;86.05
10115;BME280;5097;43.260;27.812;2023-09-19T02:56:09;100470.31;;;16.95;86.37
10115;BME280;5097;43.260;27.812;2023-09-19T02:58:57;100454.94;;;16.86;86.48
10115;BME280;5097;43.260;27.812;2023-09-19T03:01:43;100471.53;;;17.02;86.45
10115;BME280;5097;43.260;27.812;2023-09-19T03:04:31;100453.53;;;16.93;86.03
10115;BME280;5097;43.260;27.812;2023-09-19T03:07:16;100475.91;;;17.03;86.34
10115;BME280;5097;43.260;27.812;2023-09-19T03:10:00;100465.31;;;16.90;86.77
10115;BME280;5097;43.260;27.812;2023-09-19T03:12:47;100470.66;;;16.90;86.92
10115;BME280;5097;43.260;27.812;2023-09-19T03:15:33;100471.69;;;16.88;87.08
10115;BME280;5097;43.260;27.812;2023-09-19T03:18:17;100474.38;;;16.88;87.09
10115;BME280;5097;43.260;27.812;2023-09-19T03:21:01;100470.22;;;16.84;87.27
10115;BME280;5097;43.260;27.812;2023-09-19T03:23:45;100464.16;;;16.82;87.07
10115;BME280;5097;43.260;27.812;2023-09-19T03:26:30;100464.59;;;16.75;87.50
10115;BME280;5097;43.260;27.812;2023-09-19T03:29:17;100483.56;;;16.84;87.84
10115;BME280;5097;43.260;27.812;2023-09-19T03:32:02;100330.31;;;15.91;87.89
10115;BME280;5097;43.260;27.812;2023-09-19T03:34:47;100484.41;;;16.84;87.94
10115;BME280;5097;43.260;27.812;2023-09-19T03:37:32;100470.94;;;16.86;87.77
10115;BME280;5097;43.260;27.812;2023-09-19T03:40:17;100478.66;;;16.90;88.09
10115;BME280;5097;43.260;27.812;2023-09-19T03:43:04;100481.75;;;16.84;88.52
10115;BME280;5097;43.260;27.812;2023-09-19T03:45:50;100461.34;;;16.83;88.06
10115;BME280;5097;43.260;27.812;2023-09-19T03:48:35;100482.16;;;16.91;88.06
10115;BME280;5097;43.260;27.812;2023-09-19T03:51:20;100491.47;;;16.85;88.74
10115;BME280;5097;43.260;27.812;2023-09-19T03:54:04;100488.16;;;16.82;88.73
10115;BME280;5097;43.260;27.812;2023-09-19T03:56:48;100466.69;;;16.83;88.37
10115;BME280;5097;43.260;27.812;2023-09-19T03:59:32;100481.38;;;16.89;88.19
10115;BME280;5097;43.260;27.812;2023-09-19T04:02:19;100455.19;;;16.83;87.90
10115;BME280;5097;43.260;27.812;2023-09-19T04:05:07;100465.84;;;16.83;88.52
10115;BME280;5097;43.260;27.812;2023-09-19T04:07:51;100478.31;;;16.95;87.95
10115;BME280;5097;43.260;27.812;2023-09-19T04:10:36;100472.00;;;16.96;87.78
10115;BME280;5097;43.260;27.812;2023-09-19T04:13:20;100468.38;;;16.97;87.57
10115;BME280;5097;43.260;27.812;2023-09-19T04:16:04;100462.97;;;17.10;87.39
10115;BME280;5097;43.260;27.812;2023-09-19T04:18:50;100458.25;;;17.14;86.89
10115;BME280;5097;43.260;27.812;2023-09-19T04:21:34;100463.16;;;17.31;86.48
10115;BME280;5097;43.260;27.812;2023-09-19T04:24:19;100467.16;;;17.37;85.47
10115;BME280;5097;43.260;27.812;2023-09-19T04:27:03;100456.00;;;17.32;85.47
10115;BME280;5097;43.260;27.812;2023-09-19T04:29:48;100477.97;;;17.35;85.61
10115;BME280;5097;43.260;27.812;2023-09-19T04:32:33;100446.88;;;17.23;85.03
10115;BME280;5097;43.260;27.812;2023-09-19T04:35:20;100474.09;;;17.39;84.83
10115;BME280;5097;43.260;27.812;2023-09-19T04:38:04;100469.84;;;17.37;85.06
10115;BME280;5097;43.260;27.812;2023-09-19T04:40:49;100467.31;;;17.47;84.44
10115;BME280;5097;43.260;27.812;2023-09-19T04:43:33;100467.91;;;17.39;84.61
10115;BME280;5097;43.260;27.812;2023-09-19T04:46:17;100462.91;;;17.34;84.75
10115;BME280;5097;43.260;27.812;2023-09-19T04:49:02;100479.56;;;17.49;84.38
10115;BME280;5097;43.260;27.812;2023-09-19T04:51:47;100472.94;;;17.55;84.31
10115;BME280;5097;43.260;27.812;2023-09-19T04:54:31;100449.94;;;17.41;83.91
10115;BME280;5097;43.260;27.812;2023-09-19T04:57:16;100455.19;;;17.54;83.87
10115;BME280;5097;43.260;27.812;2023-09-19T05:00:00;100404.41;;;17.42;83.38
10115;BME280;5097;43.260;27.812;2023-09-19T05:02:49;100458.41;;;17.82;83.20
10115;BME280;5097;43.260;27.812;2023-09-19T05:05:34;100443.22;;;17.82;82.97
10115;BME280;5097;43.260;27.812;2023-09-19T05:08:19;100462.66;;;18.07;82.05
10115;BME280;5097;43.260;27.812;2023-09-19T05:11:04;100454.31;;;18.12;81.54
10115;BME280;5097;43.260;27.812;2023-09-19T05:13:49;100448.56;;;18.16;81.29
10115;BME280;5097;43.260;27.812;2023-09-19T05:16:35;100455.50;;;18.30;80.71
10115;BME280;5097;43.260;27.812;2023-09-19T05:19:19;100458.19;;;18.30;80.43
10115;BME280;5097;43.260;27.812;2023-09-19T05:22:04;100457.44;;;18.39;80.07
10115;BME280;5097;43.260;27.812;2023-09-19T05:24:51;100416.13;;;18.21;79.69
10115;BME280;5097;43.260;27.812;2023-09-19T05:27:35;100437.63;;;18.31;79.42
10115;BME280;5097;43.260;27.812;2023-09-19T05:30:20;100445.72;;;18.52;79.09
10115;BME280;5097;43.260;27.812;2023-09-19T05:33:05;100458.09;;;18.64;78.67
10115;BME280;5097;43.260;27.812;2023-09-19T05:35:50;100460.25;;;18.82;77.79
10115;BME280;5097;43.260;27.812;2023-09-19T05:38:34;100455.63;;;18.84;77.41
10115;BME280;5097;43.260;27.812;2023-09-19T05:41:19;100444.41;;;18.90;77.21
10115;BME280;5097;43.260;27.812;2023-09-19T05:44:04;100456.53;;;19.05;76.47
10115;BME280;5097;43.260;27.812;2023-09-19T05:46:49;100461.06;;;19.26;76.39
10115;BME280;5097;43.260;27.812;2023-09-19T05:49:34;100462.44;;;19.41;75.43
10115;BME280;5097;43.260;27.812;2023-09-19T05:52:23;100457.91;;;19.63;74.73
10115;BME280;5097;43.260;27.812;2023-09-19T05:55:07;100461.19;;;19.88;73.63
10115;BME280;5097;43.260;27.812;2023-09-19T05:57:55;100444.66;;;19.83;73.29
10115;BME280;5097;43.260;27.812;2023-09-19T06:00:39;100424.69;;;19.75;73.05
10115;BME280;5097;43.260;27.812;2023-09-19T06:03:25;100441.38;;;20.10;72.17
10115;BME280;5097;43.260;27.812;2023-09-19T06:06:10;100427.66;;;20.03;71.70
10115;BME280;5097;43.260;27.812;2023-09-19T06:08:54;100462.81;;;20.51;70.89
10115;BME280;5097;43.260;27.812;2023-09-19T06:11:38;100476.56;;;20.67;70.02
10115;BME280;5097;43.260;27.812;2023-09-19T06:14:23;100475.03;;;20.74;70.43
10115;BME280;5097;43.260;27.812;2023-09-19T06:17:07;100464.59;;;20.81;68.80
10115;BME280;5097;43.260;27.812;2023-09-19T06:19:51;100476.88;;;20.84;68.23
10115;BME280;5097;43.260;27.812;2023-09-19T06:22:36;100478.72;;;20.93;67.57
10115;BME280;5097;43.260;27.812;2023-09-19T06:25:21;100447.22;;;20.95;67.55
10115;BME280;5097;43.260;27.812;2023-09-19T06:28:06;100481.44;;;21.13;66.92
10115;BME280;5097;43.260;27.812;2023-09-19T06:30:52;100463.31;;;21.15;67.31
10115;BME280;5097;43.260;27.812;2023-09-19T06:33:37;100470.13;;;21.29;66.64
10115;BME280;5097;43.260;27.812;2023-09-19T06:36:22;100483.81;;;21.55;66.59
10115;BME280;5097;43.260;27.812;2023-09-19T06:39:06;100453.84;;;21.20;65.94
10115;BME280;5097;43.260;27.812;2023-09-19T06:41:53;100483.81;;;21.55;65.05
10115;BME280;5097;43.260;27.812;2023-09-19T06:44:37;100485.06;;;21.60;64.60
10115;BME280;5097;43.260;27.812;2023-09-19T06:47:22;100489.59;;;21.40;65.12
10115;BME280;5097;43.260;27.812;2023-09-19T06:50:08;100492.53;;;21.76;63.95
10115;BME280;5097;43.260;27.812;2023-09-19T06:52:56;100487.41;;;21.93;63.65
10115;BME280;5097;43.260;27.812;2023-09-19T06:55:42;100467.19;;;21.79;63.06
10115;BME280;5097;43.260;27.812;2023-09-19T06:58:26;100493.66;;;21.84;63.27
10115;BME280;5097;43.260;27.812;2023-09-19T07:01:10;100490.25;;;21.91;63.01
10115;BME280;5097;43.260;27.812;2023-09-19T07:03:59;100485.34;;;22.15;62.99
10115;BME280;5097;43.260;27.812;2023-09-19T07:06:43;100498.91;;;22.23;61.42
10115;BME280;5097;43.260;27.812;2023-09-19T07:09:28;100492.72;;;22.13;61.14
10115;BME280;5097;43.260;27.812;2023-09-19T07:12:12;100492.34;;;22.35;60.20
10115;BME280;5097;43.260;27.812;2023-09-19T07:14:56;100486.38;;;22.41;59.68
10115;BME280;5097;43.260;27.812;2023-09-19T07:17:40;100485.25;;;22.44;59.56
10115;BME280;5097;43.260;27.812;2023-09-19T07:20:26;100484.63;;;22.50;58.09
10115;BME280;5097;43.260;27.812;2023-09-19T07:23:15;100482.00;;;22.40;58.49
10115;BME280;5097;43.260;27.812;2023-09-19T07:25:59;100491.63;;;22.61;58.40
10115;BME280;5097;43.260;27.812;2023-09-19T07:28:43;100477.63;;;22.85;57.62
10115;BME280;5097;43.260;27.812;2023-09-19T07:31:27;100463.09;;;22.50;59.14
10115;BME280;5097;43.260;27.812;2023-09-19T07:34:12;100495.03;;;22.63;58.27
10115;BME280;5097;43.260;27.812;2023-09-19T07:36:59;100491.13;;;22.57;58.38
10115;BME280;5097;43.260;27.812;2023-09-19T07:39:43;100477.91;;;22.36;58.93
10115;BME280;5097;43.260;27.812;2023-09-19T07:42:27;100482.31;;;22.37;59.30
10115;BME280;5097;43.260;27.812;2023-09-19T07:45:11;100466.41;;;22.34;59.46
10115;BME280;5097;43.260;27.812;2023-09-19T07:47:57;100473.78;;;22.32;59.39
10115;BME280;5097;43.260;27.812;2023-09-19T07:50:43;100461.78;;;22.26;58.98
10115;BME280;5097;43.260;27.812;2023-09-19T07:53:29;100480.47;;;22.28;58.78
10115;BME280;5097;43.260;27.812;2023-09-19T07:56:17;100450.88;;;22.28;57.85
10115;BME280;5097;43.260;27.812;2023-09-19T07:59:03;100465.94;;;22.49;58.24
10115;BME280;5097;43.260;27.812;2023-09-19T08:01:47;100446.81;;;22.14;58.95
10115;BME280;5097;43.260;27.812;2023-09-19T08:04:31;100427.09;;;22.51;57.89
10115;BME280;5097;43.260;27.812;2023-09-19T08:07:17;100433.88;;;22.91;56.29
10115;BME280;5097;43.260;27.812;2023-09-19T08:10:03;100457.25;;;23.19;56.11
10115;BME280;5097;43.260;27.812;2023-09-19T08:12:47;100452.13;;;23.60;55.61
10115;BME280;5097;43.260;27.812;2023-09-19T08:15:43;100450.84;;;24.41;54.12
10115;BME280;5097;43.260;27.812;2023-09-19T08:18:28;100428.97;;;24.53;53.44
10115;BME280;5097;43.260;27.812;2023-09-19T08:21:13;100445.78;;;25.22;50.69
10115;BME280;5097;43.260;27.812;2023-09-19T08:23:59;100417.03;;;25.05;50.46
10115;BME280;5097;43.260;27.812;2023-09-19T08:26:46;100407.91;;;25.06;51.05
10115;BME280;5097;43.260;27.812;2023-09-19T08:29:31;100438.09;;;25.75;49.27
10115;BME280;5097;43.260;27.812;2023-09-19T08:32:15;100413.16;;;24.99;50.25
10115;BME280;5097;43.260;27.812;2023-09-19T08:35:01;100435.09;;;25.62;49.63
10115;BME280;5097;43.260;27.812;2023-09-19T08:37:50;100405.72;;;25.34;50.01
10115;BME280;5097;43.260;27.812;2023-09-19T08:40:37;100428.66;;;25.71;49.54
10115;BME280;5097;43.260;27.812;2023-09-19T08:43:24;100367.09;;;25.73;49.69
10115;BME280;5097;43.260;27.812;2023-09-19T08:46:10;100431.72;;;25.68;49.68
10115;BME280;5097;43.260;27.812;2023-09-19T08:49:03;100404.63;;;25.76;49.26
10115;BME280;5097;43.260;27.812;2023-09-19T08:51:53;100422.88;;;25.74;50.18
10115;BME280;5097;43.260;27.812;2023-09-19T08:54:40;100417.50;;;27.00;48.07
10115;BME280;5097;43.260;27.812;2023-09-19T08:57:29;100416.13;;;27.42;46.86
10115;BME280;5097;43.260;27.812;2023-09-19T09:00:15;100412.63;;;27.34;46.66
10115;BME280;5097;43.260;27.812;2023-09-19T09:03:03;100421.03;;;26.86;47.48
10115;BME280;5097;43.260;27.812;2023-09-19T09:05:50;100413.66;;;26.95;46.94
10115;BME280;5097;43.260;27.812;2023-09-19T09:08:34;100403.13;;;26.45;47.93
10115;BME280;5097;43.260;27.812;2023-09-19T09:11:19;100405.88;;;25.97;47.10
10115;BME280;5097;43.260;27.812;2023-09-19T09:14:05;100406.38;;;25.45;48.19
10115;BME280;5097;43.260;27.812;2023-09-19T09:16:52;100400.31;;;25.90;46.45
10115;BME280;5097;43.260;27.812;2023-09-19T09:19:39;100332.91;;;25.16;46.62
10115;BME280;5097;43.260;27.812;2023-09-19T09:22:24;100403.97;;;25.66;46.87
10115;BME280;5097;43.260;27.812;2023-09-19T09:25:08;100374.25;;;25.58;47.09
10115;BME280;5097;43.260;27.812;2023-09-19T09:27:58;100392.97;;;25.76;45.40
10115;BME280;5097;43.260;27.812;2023-09-19T09:30:43;100393.41;;;25.88;44.59
10115;BME280;5097;43.260;27.812;2023-09-19T09:33:29;100378.16;;;26.03;45.23
10115;BME280;5097;43.260;27.812;2023-09-19T09:36:14;100368.06;;;25.81;44.22
10115;BME280;5097;43.260;27.812;2023-09-19T09:38:58;100359.41;;;26.25;42.97
10115;BME280;5097;43.260;27.812;2023-09-19T09:41:58;100381.06;;;25.85;43.25
10115;BME280;5097;43.260;27.812;2023-09-19T09:44:43;100375.94;;;25.59;43.73
10115;BME280;5097;43.260;27.812;2023-09-19T09:47:41;100379.47;;;26.07;43.36
10115;BME280;5097;43.260;27.812;2023-09-19T09:50:31;100380.19;;;25.37;45.61
10115;BME280;5097;43.260;27.812;2023-09-19T09:53:27;100353.34;;;25.35;45.10
10115;BME280;5097;43.260;27.812;2023-09-19T09:56:15;100383.19;;;25.58;45.44
10115;BME280;5097;43.260;27.812;2023-09-19T09:58:59;100377.56;;;25.76;45.20
10115;BME280;5097;43.260;27.812;2023-09-19T10:01:48;100367.38;;;25.87;45.53
10115;BME280;5097;43.260;27.812;2023-09-19T10:04:32;100368.00;;;25.57;46.97
10115;BME280;5097;43.260;27.812;2023-09-19T10:07:29;100364.69;;;25.79;45.13
10115;BME280;5097;43.260;27.812;2023-09-19T10:10:31;100365.25;;;25.66;45.59
10115;BME280;5097;43.260;27.812;2023-09-19T10:13:29;100354.88;;;25.86;45.87
10115;BME280;5097;43.260;27.812;2023-09-19T10:16:14;100361.63;;;25.34;47.89
10115;BME280;5097;43.260;27.812;2023-09-19T10:19:02;100368.88;;;25.25;48.31
10115;BME280;5097;43.260;27.812;2023-09-19T10:21:50;100364.84;;;25.37;47.98
10115;BME280;5097;43.260;27.812;2023-09-19T10:24:36;100335.56;;;25.41;47.50
10115;BME280;5097;43.260;27.812;2023-09-19T10:27:39;100331.97;;;25.57;46.64
10115;BME280;5097;43.260;27.812;2023-09-19T10:30:25;100338.19;;;26.14;44.99
10115;BME280;5097;43.260;27.812;2023-09-19T10:33:14;100357.66;;;26.32;44.68
10115;BME280;5097;43.260;27.812;2023-09-19T10:35:59;100362.25;;;25.92;45.30
10115;BME280;5097;43.260;27.812;2023-09-19T10:38:45;100360.59;;;25.91;45.75
10115;BME280;5097;43.260;27.812;2023-09-19T10:41:34;100338.53;;;26.02;45.86
10115;BME280;5097;43.260;27.812;2023-09-19T10:44:23;100350.53;;;26.08;46.06
10115;BME280;5097;43.260;27.812;2023-09-19T10:47:07;100336.00;;;26.32;45.62
10115;BME280;5097;43.260;27.812;2023-09-19T10:49:52;100340.53;;;26.17;45.88
10115;BME280;5097;43.260;27.812;2023-09-19T10:52:39;100326.34;;;26.38;45.94
10115;BME280;5097;43.260;27.812;2023-09-19T10:55:25;100310.50;;;26.50;46.39
10115;BME280;5097;43.260;27.812;2023-09-19T10:58:25;100321.75;;;26.38;48.00
10115;BME280;5097;43.260;27.812;2023-09-19T11:01:12;100327.72;;;26.57;47.67
10115;BME280;5097;43.260;27.812;2023-09-19T11:04:22;100324.16;;;26.80;47.21
10115;BME280;5097;43.260;27.812;2023-09-19T11:07:08;100311.25;;;26.82;47.86
10115;BME280;5097;43.260;27.812;2023-09-19T11:09:55;100319.56;;;27.03;47.58
10115;BME280;5097;43.260;27.812;2023-09-19T11:12:50;100282.84;;;26.08;48.78
10115;BME280;5097;43.260;27.812;2023-09-19T11:16:04;100317.72;;;26.34;49.33
10115;BME280;5097;43.260;27.812;2023-09-19T11:18:55;100303.09;;;26.43;48.54
10115;BME280;5097;43.260;27.812;2023-09-19T11:21:40;100296.75;;;27.13;46.89
10115;BME280;5097;43.260;27.812;2023-09-19T11:24:28;100282.03;;;26.92;46.48
10115;BME280;5097;43.260;27.812;2023-09-19T11:27:15;100274.00;;;27.73;45.45
10115;BME280;5097;43.260;27.812;2023-09-19T11:33:19;100294.28;;;27.18;47.14
10115;BME280;5097;43.260;27.812;2023-09-19T11:36:07;100296.59;;;26.76;48.45
10115;BME280;5097;43.260;27.812;2023-09-19T11:38:59;100285.72;;;26.99;47.72
10115;BME280;5097;43.260;27.812;2023-09-19T11:41:51;100291.44;;;27.19;47.17
10115;BME280;5097;43.260;27.812;2023-09-19T11:44:39;100294.97;;;27.20;47.98
10115;BME280;5097;43.260;27.812;2023-09-19T11:47:23;100298.41;;;26.99;47.93
10115;BME280;5097;43.260;27.812;2023-09-19T11:50:09;100296.09;;;26.49;49.41
10115;BME280;5097;43.260;27.812;2023-09-19T11:52:54;100288.75;;;26.58;48.97
10115;BME280;5097;43.260;27.812;2023-09-19T11:55:38;100285.13;;;27.04;48.72
10115;BME280;5097;43.260;27.812;2023-09-19T11:58:23;100278.22;;;27.01;48.83
10115;BME280;5097;43.260;27.812;2023-09-19T12:01:12;100288.22;;;27.01;49.05
10115;BME280;5097;43.260;27.812;2023-09-19T12:03:58;100278.00;;;26.73;49.63
10115;BME280;5097;43.260;27.812;2023-09-19T12:06:56;100271.00;;;26.79;50.35
10115;BME280;5097;43.260;27.812;2023-09-19T12:09:42;100275.41;;;27.24;49.12
10115;BME280;5097;43.260;27.812;2023-09-19T12:12:27;100266.78;;;26.76;51.37
10115;BME280;5097;43.260;27.812;2023-09-19T12:15:12;100265.63;;;26.70;50.60
10115;BME280;5097;43.260;27.812;2023-09-19T12:17:57;100270.81;;;26.57;51.95
10115;BME280;5097;43.260;27.812;2023-09-19T12:20:44;100264.13;;;26.30;52.27
10115;BME280;5097;43.260;27.812;2023-09-19T12:23:33;100271.19;;;26.54;51.77
10115;BME280;5097;43.260;27.812;2023-09-19T12:26:20;100265.63;;;26.70;51.08
10115;BME280;5097;43.260;27.812;2023-09-19T12:29:11;100255.31;;;26.27;51.11
10115;BME280;5097;43.260;27.812;2023-09-19T12:31:57;100263.56;;;26.34;50.98
10115;BME280;5097;43.260;27.812;2023-09-19T12:34:51;100262.53;;;26.35;51.30
10115;BME280;5097;43.260;27.812;2023-09-19T12:37:42;100259.06;;;26.65;50.88
10115;BME280;5097;43.260;27.812;2023-09-19T12:40:30;100264.81;;;26.47;51.52
10115;BME280;5097;43.260;27.812;2023-09-19T12:43:17;100260.69;;;26.51;50.96
10115;BME280;5097;43.260;27.812;2023-09-19T12:46:02;100259.91;;;26.27;51.07
10115;BME280;5097;43.260;27.812;2023-09-19T12:48:47;100239.09;;;26.42;50.83
10115;BME280;5097;43.260;27.812;2023-09-19T12:51:39;100240.13;;;26.41;50.25
10115;BME280;5097;43.260;27.812;2023-09-19T12:54:23;100227.63;;;25.94;51.21
10115;BME280;5097;43.260;27.812;2023-09-19T12:57:23;100246.22;;;25.66;52.73
10115;BME280;5097;43.260;27.812;2023-09-19T13:00:08;100247.56;;;25.93;52.04
10115;BME280;5097;43.260;27.812;2023-09-19T13:03:15;100239.25;;;26.26;51.14
10115;BME280;5097;43.260;27.812;2023-09-19T13:06:02;100257.75;;;25.91;52.41
10115;BME280;5097;43.260;27.812;2023-09-19T13:08:46;100254.78;;;25.77;52.96
10115;BME280;5097;43.260;27.812;2023-09-19T13:11:37;100226.78;;;25.93;52.09
10115;BME280;5097;43.260;27.812;2023-09-19T13:14:25;100247.63;;;26.39;50.88
10115;BME280;5097;43.260;27.812;2023-09-19T13:17:11;100243.69;;;25.64;52.37
10115;BME280;5097;43.260;27.812;2023-09-19T13:19:59;100252.59;;;25.73;52.76
10115;BME280;5097;43.260;27.812;2023-09-19T13:22:45;100238.56;;;25.77;52.79
10115;BME280;5097;43.260;27.812;2023-09-19T13:25:32;100242.66;;;25.97;51.90
10115;BME280;5097;43.260;27.812;2023-09-19T13:28:16;100230.81;;;25.98;52.56
10115;BME280;5097;43.260;27.812;2023-09-19T13:31:01;100234.63;;;26.12;52.01
10115;BME280;5097;43.260;27.812;2023-09-19T13:33:48;100238.41;;;26.25;52.20
10115;BME280;5097;43.260;27.812;2023-09-19T13:36:33;100241.59;;;26.06;52.45
10115;BME280;5097;43.260;27.812;2023-09-19T13:39:17;100242.13;;;25.38;54.00
10115;BME280;5097;43.260;27.812;2023-09-19T13:42:02;100242.47;;;25.98;53.20
10115;BME280;5097;43.260;27.812;2023-09-19T13:44:47;100219.81;;;25.99;51.56
10115;BME280;5097;43.260;27.812;2023-09-19T13:47:33;100247.13;;;26.59;51.23
10115;BME280;5097;43.260;27.812;2023-09-19T13:50:19;100241.59;;;25.74;53.59
10115;BME280;5097;43.260;27.812;2023-09-19T13:53:06;100240.16;;;26.18;52.53
10115;BME280;5097;43.260;27.812;2023-09-19T13:55:50;100229.88;;;26.52;51.74
10115;BME280;5097;43.260;27.812;2023-09-19T13:58:34;100230.22;;;26.34;52.37
10115;BME280;5097;43.260;27.812;2023-09-19T14:01:18;100231.84;;;26.20;52.69
10115;BME280;5097;43.260;27.812;2023-09-19T14:04:05;100222.63;;;25.83;54.28
10115;BME280;5097;43.260;27.812;2023-09-19T14:06:49;100224.41;;;26.22;53.65
10115;BME280;5097;43.260;27.812;2023-09-19T14:09:33;100199.84;;;26.00;53.75
10115;BME280;5097;43.260;27.812;2023-09-19T14:12:17;100228.50;;;25.86;54.69
10115;BME280;5097;43.260;27.812;2023-09-19T14:15:01;100238.75;;;25.68;55.36
10115;BME280;5097;43.260;27.812;2023-09-19T14:17:46;100229.59;;;26.08;54.17
10115;BME280;5097;43.260;27.812;2023-09-19T14:20:33;100228.72;;;25.45;55.48
10115;BME280;5097;43.260;27.812;2023-09-19T14:23:21;100226.78;;;25.93;54.81
10115;BME280;5097;43.260;27.812;2023-09-19T14:26:05;100226.91;;;26.23;53.66
10115;BME280;5097;43.260;27.812;2023-09-19T14:28:50;100232.41;;;26.15;53.52
10115;BME280;5097;43.260;27.812;2023-09-19T14:31:36;100203.78;;;26.36;52.50
10115;BME280;5097;43.260;27.812;2023-09-19T14:34:21;100198.31;;;26.06;52.55
10115;BME280;5097;43.260;27.812;2023-09-19T14:37:06;100220.00;;;26.21;51.94
10115;BME280;5097;43.260;27.812;2023-09-19T14:39:50;100200.69;;;25.77;52.36